createdAt,value
2022-10-17T00:02:35.953Z,92.36
2022-10-17T00:07:37.958Z,92.04
2022-10-17T00:12:39.413Z,90.93
2022-10-17T00:17:41.984Z,90.63
2022-10-17T00:22:43.688Z,90.87
2022-10-17T00:27:45.634Z,91.70
2022-10-17T00:32:47.400Z,91.73
2022-10-17T00:37:49.139Z,92.15
2022-10-17T00:42:53.070Z,91.96
2022-10-17T00:48:08.479Z,92.17
2022-10-17T00:53:11.043Z,92.21
2022-10-17T00:58:12.549Z,92.03
2022-10-17T01:03:14.483Z,92.39
2022-10-17T01:08:16.324Z,92.44
2022-10-17T01:13:46.800Z,92.46
2022-10-17T01:19:02.532Z,92.48
2022-10-17T01:24:41.203Z,93.09
2022-10-17T01:30:09.641Z,93.14
2022-10-17T01:35:28.960Z,92.78
2022-10-17T01:40:45.782Z,92.86
2022-10-17T01:45:57.212Z,92.45
2022-10-17T01:51:07.904Z,92.34
2022-10-17T01:56:13.215Z,92.77
2022-10-17T02:01:16.988Z,93.15
2022-10-17T02:06:18.654Z,93.29
2022-10-17T02:11:25.080Z,93.06
2022-10-17T02:16:41.388Z,93.56
2022-10-17T02:22:18.000Z,93.45
2022-10-17T02:27:46.795Z,93.36
2022-10-17T02:32:55.393Z,93.66
2022-10-17T02:37:58.303Z,94.38
2022-10-17T02:43:03.653Z,94.63
2022-10-17T02:48:15.426Z,94.69
2022-10-17T02:53:27.609Z,94.45
2022-10-17T02:58:33.235Z,93.87
2022-10-17T03:03:34.656Z,93.67
2022-10-17T03:08:36.068Z,94.07
2022-10-17T03:13:39.724Z,94.15
2022-10-17T03:18:43.486Z,93.72
2022-10-17T03:23:48.079Z,93.66
2022-10-17T03:28:52.028Z,93.47
2022-10-17T03:33:55.833Z,93.02
2022-10-17T03:38:57.221Z,92.88
2022-10-17T03:43:58.631Z,93.52
2022-10-17T03:49:00.249Z,93.74
2022-10-17T03:54:01.887Z,94.52
2022-10-17T03:59:03.368Z,95.21
2022-10-17T04:04:04.961Z,94.98
2022-10-17T04:09:07.095Z,95.26
2022-10-17T04:14:09.954Z,95.25
2022-10-17T04:19:13.733Z,95.41
2022-10-17T04:24:15.244Z,95.44
2022-10-17T04:29:17.241Z,95.41
2022-10-17T04:34:24.040Z,95.21
2022-10-17T04:39:25.814Z,95.29
2022-10-17T04:44:30.727Z,95.45
2022-10-17T04:49:32.240Z,96.11
2022-10-17T04:54:33.642Z,96.77
2022-10-17T04:59:35.052Z,96.85
2022-10-17T05:04:36.447Z,96.49
2022-10-17T05:09:37.919Z,96.62
2022-10-17T05:14:39.307Z,96.89
2022-10-17T05:19:40.707Z,97.04
2022-10-17T05:24:42.156Z,97.02
2022-10-17T05:29:43.548Z,97.29
2022-10-17T05:34:44.996Z,97.44
2022-10-17T05:39:50.617Z,98.16
2022-10-17T05:44:53.093Z,97.97
2022-10-17T05:49:54.509Z,97.88
2022-10-17T05:54:56.005Z,97.57
2022-10-17T05:59:57.492Z,97.06
2022-10-17T06:04:58.900Z,96.18
2022-10-17T06:10:00.339Z,96.01
2022-10-17T06:15:01.918Z,95.62
2022-10-17T06:20:04.012Z,95.40
2022-10-17T06:25:05.902Z,95.57
2022-10-17T06:30:07.939Z,95.20
2022-10-17T06:35:09.507Z,95.12
2022-10-17T06:40:12.337Z,94.20
2022-10-17T06:45:14.163Z,94.53
2022-10-17T06:50:15.645Z,94.79
2022-10-17T06:55:21.314Z,94.31
2022-10-17T07:00:26.691Z,94.53
2022-10-17T07:05:28.079Z,94.20
2022-10-17T07:10:29.653Z,94.11
2022-10-17T07:15:32.401Z,93.62
2022-10-17T07:20:34.140Z,93.22
2022-10-17T07:25:40.030Z,92.56
2022-10-17T07:30:42.488Z,92.38
2022-10-17T07:35:44.013Z,91.16
2022-10-17T07:40:45.488Z,91.01
2022-10-17T07:45:46.883Z,90.59
2022-10-17T07:50:48.805Z,88.87
2022-10-17T07:55:51.357Z,88.51
2022-10-17T08:00:52.955Z,85.32
2022-10-17T08:05:58.130Z,85.97
2022-10-17T08:11:05.439Z,85.55
2022-10-17T08:16:10.311Z,82.13
2022-10-17T08:21:13.417Z,82.79
2022-10-17T08:26:17.240Z,81.29
2022-10-17T08:31:20.127Z,81.61
2022-10-17T08:36:21.698Z,80.28
2022-10-17T08:41:44.920Z,79.49
2022-10-17T08:46:50.129Z,79.31
2022-10-17T08:52:02.844Z,75.63
2022-10-17T08:57:04.353Z,73.30
2022-10-17T09:02:43.282Z,73.15
2022-10-17T09:08:04.041Z,71.07
2022-10-17T09:13:23.860Z,72.95
2022-10-17T09:18:35.811Z,70.30
2022-10-17T09:23:59.518Z,69.31
2022-10-17T09:29:27.702Z,70.89
2022-10-17T09:34:33.008Z,69.22
2022-10-17T09:39:34.484Z,68.15
2022-10-17T09:45:04.700Z,69.10
2022-10-17T09:50:20.758Z,68.53
2022-10-17T09:55:50.730Z,67.20
2022-10-17T10:00:52.252Z,65.40
2022-10-17T10:06:13.902Z,63.97
2022-10-17T10:11:16.013Z,64.33
2022-10-17T10:16:31.405Z,65.19
2022-10-17T10:21:33.948Z,62.80
2022-10-17T10:26:45.931Z,63.73
2022-10-17T10:31:48.746Z,61.18
2022-10-17T10:37:02.106Z,62.97
2022-10-17T10:42:08.188Z,62.85
2022-10-17T10:47:18.583Z,60.46
2022-10-17T10:52:35.340Z,60.60
2022-10-17T10:57:37.742Z,59.71
2022-10-17T11:02:47.502Z,60.83
2022-10-17T11:08:24.460Z,59.49
2022-10-17T11:13:37.623Z,59.66
2022-10-17T11:18:45.586Z,58.61
2022-10-17T11:23:51.395Z,58.13
2022-10-17T11:28:54.527Z,57.29
2022-10-17T11:33:58.983Z,57.78
2022-10-17T11:39:06.079Z,57.99
2022-10-17T11:44:25.004Z,56.58
2022-10-17T11:49:38.257Z,56.12
2022-10-17T11:54:48.983Z,55.68
2022-10-17T11:59:56.218Z,57.10
2022-10-17T12:05:06.946Z,57.62
2022-10-17T12:10:37.396Z,55.30
2022-10-17T12:15:38.927Z,56.09
2022-10-17T12:20:40.443Z,54.28
2022-10-17T12:25:52.167Z,55.52
2022-10-17T12:30:58.406Z,54.16
2022-10-17T12:36:27.257Z,54.96
2022-10-17T12:41:40.806Z,54.27
2022-10-17T12:46:50.907Z,53.53
2022-10-17T12:52:16.944Z,54.89
2022-10-17T12:57:40.149Z,54.14
2022-10-17T13:02:41.987Z,55.25
2022-10-17T13:07:47.917Z,54.97
2022-10-17T13:12:51.198Z,54.95
2022-10-17T13:18:00.307Z,56.03
2022-10-17T13:23:02.005Z,55.37
2022-10-17T13:28:12.308Z,55.31
2022-10-17T13:33:28.473Z,56.58
2022-10-17T13:38:34.821Z,55.42
2022-10-17T13:43:38.906Z,55.09
2022-10-17T13:48:40.501Z,54.85
2022-10-17T13:53:44.374Z,56.00
2022-10-17T13:58:51.225Z,55.32
2022-10-17T14:04:07.254Z,54.07
2022-10-17T14:09:28.750Z,55.43
2022-10-17T14:14:37.511Z,53.44
2022-10-17T14:20:05.811Z,52.47
2022-10-17T14:25:37.139Z,54.26
2022-10-17T14:30:57.752Z,52.57
2022-10-17T14:36:01.877Z,53.44
2022-10-17T14:41:40.928Z,54.41
2022-10-17T14:46:31.123Z,55.49
2022-10-17T14:51:44.722Z,56.01
2022-10-17T14:56:55.801Z,56.15
2022-10-17T15:01:57.233Z,56.81
2022-10-17T15:06:58.687Z,57.37
2022-10-17T15:12:02.675Z,57.81
2022-10-17T15:17:12.517Z,58.12
2022-10-17T15:22:16.040Z,57.85
2022-10-17T15:27:22.946Z,58.21
2022-10-17T15:32:24.422Z,58.29
2022-10-17T15:37:25.964Z,58.53
2022-10-17T15:42:29.533Z,59.13
2022-10-17T15:47:35.327Z,59.54
2022-10-17T15:52:36.795Z,59.66
2022-10-17T15:57:42.769Z,59.34
2022-10-17T16:02:44.738Z,58.78
2022-10-17T16:07:46.811Z,59.49
2022-10-17T16:12:49.910Z,59.26
2022-10-17T16:17:52.957Z,59.48
2022-10-17T16:22:59.844Z,59.56
2022-10-17T16:28:01.647Z,59.61
2022-10-17T16:33:03.163Z,59.84
2022-10-17T16:38:06.308Z,60.31
2022-10-17T16:43:12.217Z,60.82
2022-10-17T16:48:14.443Z,61.78
2022-10-17T16:53:15.837Z,61.31
2022-10-17T16:58:17.300Z,61.79
2022-10-17T17:03:18.770Z,62.14
2022-10-17T17:08:20.228Z,61.65
2022-10-17T17:13:21.646Z,62.12
2022-10-17T17:18:23.104Z,61.51
2022-10-17T17:23:24.567Z,61.46
2022-10-17T17:28:26.743Z,61.28
2022-10-17T17:33:29.939Z,61.37
2022-10-17T17:38:33.655Z,62.28
2022-10-17T17:43:35.764Z,61.79
2022-10-17T17:48:41.040Z,62.03
2022-10-17T17:53:42.561Z,61.04
2022-10-17T17:58:46.465Z,61.11
2022-10-17T18:03:49.757Z,61.73
2022-10-17T18:08:54.235Z,61.50
2022-10-17T18:14:07.113Z,61.55
2022-10-17T18:19:11.031Z,61.83
2022-10-17T18:24:12.445Z,61.57
2022-10-17T18:29:13.844Z,61.97
2022-10-17T18:34:15.263Z,62.06
2022-10-17T18:39:16.733Z,61.74
2022-10-17T18:44:18.170Z,61.98
2022-10-17T18:49:21.687Z,61.94
2022-10-17T18:54:24.408Z,62.41
2022-10-17T18:59:25.862Z,62.35
2022-10-17T19:04:27.421Z,62.65
2022-10-17T19:09:28.883Z,62.66
2022-10-17T19:14:30.624Z,62.70
2022-10-17T19:19:32.477Z,62.68
2022-10-17T19:24:33.885Z,62.71
2022-10-17T19:29:35.314Z,63.02
2022-10-17T19:34:37.284Z,63.07
2022-10-17T19:39:38.866Z,63.64
2022-10-17T19:44:40.264Z,63.71
2022-10-17T19:49:42.903Z,64.04
2022-10-17T19:54:45.836Z,64.12
2022-10-17T19:59:48.015Z,64.48
2022-10-17T20:05:06.298Z,64.46
2022-10-17T20:10:12.307Z,64.31
2022-10-17T20:15:13.871Z,64.50
2022-10-17T20:20:15.434Z,64.23
2022-10-17T20:25:17.156Z,64.27
2022-10-17T20:30:18.755Z,64.21
2022-10-17T20:35:20.188Z,64.42
2022-10-17T20:40:36.893Z,65.01
2022-10-17T20:45:50.714Z,65.27
2022-10-17T20:50:53.199Z,65.43
2022-10-17T20:56:02.351Z,65.64
2022-10-17T21:01:08.588Z,65.76
2022-10-17T21:06:11.214Z,65.69
2022-10-17T21:11:19.097Z,65.81
2022-10-17T21:16:20.708Z,65.76
2022-10-17T21:21:26.652Z,66.10
2022-10-17T21:26:28.749Z,65.89
2022-10-17T21:31:30.227Z,66.18
2022-10-17T21:36:31.769Z,66.18
2022-10-17T21:41:33.333Z,66.50
2022-10-17T21:46:34.744Z,66.41
2022-10-17T21:51:36.182Z,66.39
2022-10-17T21:56:37.613Z,66.91
2022-10-17T22:01:41.412Z,67.18
2022-10-17T22:06:45.035Z,67.78
2022-10-17T22:11:48.969Z,67.66
2022-10-17T22:16:50.530Z,67.62
2022-10-17T22:21:52.514Z,67.17
2022-10-17T22:26:54.009Z,67.17
2022-10-17T22:31:55.412Z,67.34
2022-10-17T22:36:56.806Z,67.75
2022-10-17T22:41:58.198Z,67.73
2022-10-17T22:46:59.645Z,67.80
2022-10-17T22:52:01.068Z,67.59
2022-10-17T22:57:02.505Z,67.38
2022-10-17T23:02:04.438Z,67.71
2022-10-17T23:07:11.203Z,68.24
2022-10-17T23:12:12.596Z,68.79
2022-10-17T23:17:14.483Z,69.03
2022-10-17T23:22:15.924Z,69.09
2022-10-17T23:27:17.412Z,69.06
2022-10-17T23:32:20.542Z,69.30
2022-10-17T23:37:22.068Z,69.46
2022-10-17T23:42:23.653Z,69.75
2022-10-17T23:47:25.112Z,69.95
2022-10-17T23:52:26.521Z,70.33
2022-10-17T23:57:28.094Z,70.25
